createdAt,value
2019-03-11T00:00:25.196Z,1.30
2019-03-11T00:02:54.087Z,1.27
2019-03-11T00:05:22.977Z,1.13
2019-03-11T00:07:51.970Z,0.93
2019-03-11T00:10:20.862Z,1.40
2019-03-11T00:12:49.295Z,1.10
2019-03-11T00:15:17.746Z,1.23
2019-03-11T00:17:46.232Z,1.13
2019-03-11T00:20:14.686Z,1.10
2019-03-11T00:22:43.122Z,1.03
2019-03-11T00:25:11.610Z,1.20
2019-03-11T00:27:40.062Z,1.00
2019-03-11T00:30:09.975Z,1.87
2019-03-11T00:32:38.523Z,1.40
2019-03-11T00:35:07.007Z,1.97
2019-03-11T00:37:35.486Z,0.70
2019-03-11T00:40:05.640Z,0.80
2019-03-11T00:42:34.114Z,1.43
2019-03-11T00:45:02.566Z,0.90
2019-03-11T00:47:31.063Z,1.10
2019-03-11T00:49:59.679Z,1.40
2019-03-11T00:52:28.238Z,0.77
2019-03-11T00:54:56.800Z,0.73
2019-03-11T00:57:25.262Z,1.20
2019-03-11T00:59:53.761Z,1.37
2019-03-11T01:02:22.242Z,1.20
2019-03-11T01:04:50.645Z,0.90
2019-03-11T01:07:19.098Z,1.10
2019-03-11T01:09:47.578Z,1.07
2019-03-11T01:12:16.027Z,1.00
2019-03-11T01:14:44.474Z,0.90
2019-03-11T01:17:13.027Z,1.20
2019-03-11T01:19:41.522Z,1.50
2019-03-11T01:22:09.981Z,1.30
2019-03-11T01:24:38.468Z,0.90
2019-03-11T01:27:06.911Z,1.00
2019-03-11T01:29:35.349Z,1.03
2019-03-11T01:32:03.914Z,1.30
2019-03-11T01:34:32.498Z,1.10
2019-03-11T01:37:00.944Z,1.80
2019-03-11T01:39:29.433Z,0.90
2019-03-11T01:41:57.934Z,1.00
2019-03-11T01:44:26.337Z,0.80
2019-03-11T01:46:54.904Z,1.10
2019-03-11T01:49:24.050Z,0.90
2019-03-11T01:51:53.236Z,0.87
2019-03-11T01:54:21.723Z,1.20
2019-03-11T01:56:50.174Z,1.20
2019-03-11T01:59:19.050Z,1.37
2019-03-11T02:01:48.549Z,1.40
2019-03-11T02:04:18.274Z,0.90
2019-03-11T02:06:47.156Z,0.80
2019-03-11T02:09:16.866Z,1.20
2019-03-11T02:11:45.757Z,2.17
2019-03-11T02:14:14.551Z,0.80
2019-03-11T02:16:44.560Z,1.60
2019-03-11T02:19:22.938Z,1.10
2019-03-11T02:21:55.728Z,1.00
2019-03-11T02:24:24.547Z,1.30
2019-03-11T02:26:53.438Z,1.13
2019-03-11T02:29:22.435Z,1.10
2019-03-11T02:31:51.424Z,1.10
2019-03-11T02:34:20.315Z,1.50
2019-03-11T02:36:49.309Z,1.50
2019-03-11T02:39:18.204Z,1.60
2019-03-11T02:41:47.089Z,0.90
2019-03-11T02:44:16.094Z,1.30
2019-03-11T02:46:44.974Z,1.27
2019-03-11T02:49:13.865Z,0.80
2019-03-11T02:51:42.859Z,1.57
2019-03-11T02:54:11.749Z,1.00
2019-03-11T02:56:40.649Z,1.13
2019-03-11T02:59:09.632Z,1.17
2019-03-11T03:01:42.722Z,1.30
2019-03-11T03:04:16.017Z,1.17
2019-03-11T03:06:44.495Z,1.20
2019-03-11T03:09:14.197Z,1.00
2019-03-11T03:11:42.682Z,1.10
2019-03-11T03:14:11.169Z,1.10
2019-03-11T03:16:39.612Z,1.13
2019-03-11T03:19:08.184Z,1.07
2019-03-11T03:21:36.667Z,1.00
2019-03-11T03:24:05.111Z,0.87
2019-03-11T03:26:33.680Z,0.73
2019-03-11T03:29:02.155Z,0.70
2019-03-11T03:31:30.611Z,1.07
2019-03-11T03:33:59.115Z,3.25
2019-03-11T03:36:27.572Z,1.07
2019-03-11T03:38:56.031Z,1.00
2019-03-11T03:41:24.563Z,0.98
2019-03-11T03:43:52.988Z,1.45
2019-03-11T03:46:21.440Z,0.97
2019-03-11T03:48:50.098Z,0.80
2019-03-11T03:51:18.692Z,0.90
2019-03-11T03:53:47.588Z,1.20
2019-03-11T03:56:16.480Z,1.07
2019-03-11T03:58:45.367Z,1.10
2019-03-11T04:01:14.360Z,1.25
2019-03-11T04:03:43.353Z,1.00
2019-03-11T04:06:12.243Z,0.65
2019-03-11T04:08:41.134Z,1.20
2019-03-11T04:11:10.048Z,1.30
2019-03-11T04:13:39.017Z,1.05
2019-03-11T04:16:07.911Z,0.85
2019-03-11T04:18:53.905Z,1.50
2019-03-11T04:21:22.805Z,1.30
2019-03-11T04:23:52.633Z,1.17
2019-03-11T04:26:23.037Z,1.10
2019-03-11T04:28:51.921Z,1.30
2019-03-11T04:31:20.813Z,0.90
2019-03-11T04:33:49.703Z,1.12
2019-03-11T04:36:18.579Z,1.25
2019-03-11T04:38:47.483Z,1.30
2019-03-11T04:41:16.375Z,1.50
2019-03-11T04:43:45.367Z,1.03
2019-03-11T04:46:14.258Z,1.30
2019-03-11T04:48:43.152Z,1.22
2019-03-11T04:51:12.040Z,1.00
2019-03-11T04:53:40.924Z,0.90
2019-03-11T04:56:09.823Z,1.30
2019-03-11T04:58:38.712Z,1.30
2019-03-11T05:01:07.603Z,1.85
2019-03-11T05:03:36.596Z,1.50
2019-03-11T05:06:05.488Z,2.00
2019-03-11T05:08:34.378Z,1.20
2019-03-11T05:11:03.268Z,1.37
2019-03-11T05:13:32.262Z,1.65
2019-03-11T05:16:01.152Z,1.50
2019-03-11T05:18:30.043Z,1.60
2019-03-11T05:20:58.934Z,1.85
2019-03-11T05:23:27.929Z,1.90
2019-03-11T05:25:56.789Z,1.45
2019-03-11T05:28:25.708Z,1.55
2019-03-11T05:30:54.702Z,1.45
2019-03-11T05:33:23.595Z,1.17
2019-03-11T05:35:52.487Z,1.60
2019-03-11T05:38:21.477Z,1.70
2019-03-11T05:40:50.369Z,1.30
2019-03-11T05:43:19.233Z,1.60
2019-03-11T05:45:48.149Z,1.32
2019-03-11T05:48:17.029Z,1.70
2019-03-11T05:50:45.934Z,1.70
2019-03-11T05:53:14.927Z,1.10
2019-03-11T05:55:43.950Z,1.30
2019-03-11T05:58:12.810Z,2.02
2019-03-11T06:00:41.698Z,1.98
2019-03-11T06:03:10.586Z,1.40
2019-03-11T06:05:39.479Z,2.27
2019-03-11T06:08:09.791Z,1.87
2019-03-11T06:10:38.695Z,2.20
2019-03-11T06:13:07.590Z,1.75
2019-03-11T06:15:36.580Z,2.30
2019-03-11T06:18:05.471Z,2.83
2019-03-11T06:20:50.849Z,1.72
2019-03-11T06:23:19.732Z,2.33
2019-03-11T06:25:48.631Z,1.45
2019-03-11T06:28:17.520Z,2.10
2019-03-11T06:30:46.336Z,1.60
2019-03-11T06:33:15.211Z,1.60
2019-03-11T06:35:44.091Z,3.50
2019-03-11T06:38:12.980Z,2.00
2019-03-11T06:40:41.882Z,1.90
2019-03-11T06:43:10.864Z,1.50
2019-03-11T06:45:39.756Z,1.77
2019-03-11T06:48:08.646Z,2.13
2019-03-11T06:50:37.640Z,1.70
2019-03-11T06:53:06.529Z,2.00
2019-03-11T06:55:35.423Z,1.85
2019-03-11T06:58:04.414Z,1.97
2019-03-11T07:00:33.408Z,1.90
2019-03-11T07:03:02.297Z,1.80
2019-03-11T07:05:31.291Z,2.33
2019-03-11T07:08:00.286Z,1.80
2019-03-11T07:10:29.169Z,1.63
2019-03-11T07:12:58.011Z,2.03
2019-03-11T07:15:26.956Z,1.80
2019-03-11T07:17:55.949Z,2.10
2019-03-11T07:20:24.867Z,2.13
2019-03-11T07:22:53.834Z,1.77
2019-03-11T07:25:22.718Z,2.23
2019-03-11T07:27:51.616Z,2.50
2019-03-11T07:30:21.247Z,2.10
2019-03-11T07:32:50.113Z,2.30
2019-03-11T07:35:18.594Z,2.00
2019-03-11T07:37:47.488Z,2.17
2019-03-11T07:40:29.158Z,1.77
2019-03-11T07:42:49.158Z,2.00
2019-03-11T07:45:18.150Z,2.23
2019-03-11T07:47:47.143Z,2.00
2019-03-11T07:50:17.262Z,2.00
2019-03-11T07:52:46.155Z,1.80
2019-03-11T07:55:15.151Z,2.73
2019-03-11T07:57:44.840Z,1.97
2019-03-11T08:00:19.075Z,1.93
2019-03-11T08:02:48.066Z,1.73
2019-03-11T08:05:16.956Z,2.87
2019-03-11T08:07:46.614Z,2.33
2019-03-11T08:10:17.300Z,1.73
2019-03-11T08:12:46.189Z,1.73
2019-03-11T08:15:16.980Z,1.80
2019-03-11T08:17:45.917Z,1.47
2019-03-11T08:20:16.788Z,2.80
2019-03-11T08:22:45.644Z,2.03
2019-03-11T08:25:16.499Z,1.50
2019-03-11T08:27:45.372Z,1.63
2019-03-11T08:30:19.998Z,2.00
2019-03-11T08:32:48.989Z,2.07
2019-03-11T08:35:18.682Z,1.90
2019-03-11T08:37:47.590Z,1.73
2019-03-11T08:40:18.426Z,2.60
2019-03-11T08:42:47.412Z,2.20
2019-03-11T08:45:19.075Z,2.20
2019-03-11T08:47:47.965Z,2.00
2019-03-11T08:50:17.882Z,1.80
2019-03-11T08:52:46.777Z,2.03
2019-03-11T08:55:16.309Z,1.40
2019-03-11T08:57:45.270Z,2.10
2019-03-11T09:00:19.588Z,1.97
2019-03-11T09:02:48.581Z,2.47
2019-03-11T09:05:19.238Z,2.17
2019-03-11T09:07:48.924Z,1.37
2019-03-11T09:10:19.420Z,1.97
2019-03-11T09:12:48.342Z,1.60
2019-03-11T09:15:21.885Z,2.50
2019-03-11T09:17:50.719Z,1.50
2019-03-11T09:20:20.544Z,2.07
2019-03-11T09:22:49.437Z,1.73
2019-03-11T09:25:23.445Z,1.70
2019-03-11T09:27:52.337Z,2.57
2019-03-11T09:30:23.603Z,1.83
2019-03-11T09:32:53.831Z,1.70
2019-03-11T09:35:22.797Z,2.20
2019-03-11T09:37:51.691Z,1.90
2019-03-11T09:40:22.479Z,1.40
2019-03-11T09:42:51.417Z,2.30
2019-03-11T09:45:21.125Z,1.83
2019-03-11T09:47:50.022Z,2.17
2019-03-11T09:50:19.828Z,2.17
2019-03-11T09:52:48.720Z,1.47
2019-03-11T09:55:23.237Z,1.97
2019-03-11T09:57:52.133Z,2.40
2019-03-11T10:00:29.420Z,1.80
2019-03-11T10:02:58.313Z,2.00
2019-03-11T10:05:27.900Z,1.73
2019-03-11T10:07:57.028Z,1.77
2019-03-11T10:10:29.335Z,1.77
2019-03-11T10:12:58.278Z,1.90
2019-03-11T10:15:27.987Z,1.30
2019-03-11T10:17:56.984Z,1.40
2019-03-11T10:20:25.872Z,1.97
2019-03-11T10:22:54.764Z,1.53
2019-03-11T10:25:23.761Z,2.50
2019-03-11T10:27:52.661Z,1.80
2019-03-11T10:30:23.619Z,1.83
2019-03-11T10:32:52.507Z,1.50
2019-03-11T10:35:37.149Z,1.83
2019-03-11T10:37:52.511Z,1.97
2019-03-11T10:40:26.932Z,1.67
2019-03-11T10:42:55.822Z,1.80
2019-03-11T10:45:31.336Z,1.50
2019-03-11T10:47:55.965Z,2.30
2019-03-11T10:50:24.952Z,1.80
2019-03-11T10:52:53.843Z,1.70
2019-03-11T10:55:24.867Z,1.50
2019-03-11T10:57:53.723Z,2.07
2019-03-11T11:00:32.705Z,1.90
2019-03-11T11:03:01.696Z,2.13
2019-03-11T11:05:30.636Z,1.83
2019-03-11T11:07:59.579Z,2.10
2019-03-11T11:10:28.469Z,1.50
2019-03-11T11:12:57.360Z,1.67
2019-03-11T11:15:28.811Z,2.33
2019-03-11T11:17:57.815Z,2.00
2019-03-11T11:20:28.220Z,2.00
2019-03-11T11:22:57.939Z,1.67
2019-03-11T11:25:28.828Z,1.47
2019-03-11T11:27:58.459Z,1.57
2019-03-11T11:30:32.498Z,1.57
2019-03-11T11:33:01.391Z,1.33
2019-03-11T11:35:30.381Z,2.37
2019-03-11T11:37:59.377Z,1.47
2019-03-11T11:40:29.776Z,1.20
2019-03-11T11:42:58.702Z,1.20
2019-03-11T11:45:30.146Z,1.10
2019-03-11T11:47:59.140Z,0.90
2019-03-11T11:50:28.132Z,0.90
2019-03-11T11:52:57.125Z,0.70
2019-03-11T11:55:26.013Z,0.60
2019-03-11T11:57:55.108Z,0.63
2019-03-11T12:00:34.036Z,1.23
2019-03-11T12:03:03.745Z,0.70
2019-03-11T12:05:32.636Z,0.73
2019-03-11T12:08:01.527Z,0.83
2019-03-11T12:10:32.157Z,0.53
2019-03-11T12:13:01.647Z,0.50
2019-03-11T12:15:30.554Z,1.00
2019-03-11T12:17:59.552Z,0.67
2019-03-11T12:20:31.101Z,0.43
2019-03-11T12:22:59.992Z,0.50
2019-03-11T12:25:28.984Z,0.40
2019-03-11T12:27:58.320Z,0.60
2019-03-11T12:30:29.940Z,0.50
2019-03-11T12:32:59.648Z,0.50
2019-03-11T12:35:29.258Z,0.53
2019-03-11T12:37:59.663Z,0.43
2019-03-11T12:40:28.583Z,0.50
2019-03-11T12:42:57.568Z,0.60
2019-03-11T12:45:27.552Z,0.40
2019-03-11T12:47:56.477Z,0.60
2019-03-11T12:50:33.283Z,0.43
2019-03-11T12:53:02.139Z,0.70
2019-03-11T12:55:31.033Z,1.53
2019-03-11T12:58:00.134Z,1.90
2019-03-11T13:00:29.022Z,0.63
2019-03-11T13:02:58.013Z,0.60
2019-03-11T13:05:26.520Z,0.50
2019-03-11T13:07:54.971Z,0.50
2019-03-11T13:10:26.485Z,0.50
2019-03-11T13:12:55.425Z,0.53
2019-03-11T13:15:24.416Z,1.00
2019-03-11T13:17:53.405Z,0.90
2019-03-11T13:20:37.654Z,0.70
2019-03-11T13:23:06.527Z,0.90
2019-03-11T13:25:35.486Z,0.70
2019-03-11T13:28:04.431Z,0.73
2019-03-11T13:30:33.436Z,0.93
2019-03-11T13:33:02.319Z,0.60
2019-03-11T13:35:31.206Z,0.90
2019-03-11T13:38:00.200Z,0.77
2019-03-11T13:40:29.084Z,0.63
2019-03-11T13:42:57.528Z,0.97
2019-03-11T13:45:26.051Z,1.10
2019-03-11T13:47:54.533Z,0.87
2019-03-11T13:50:23.116Z,1.33
2019-03-11T13:52:51.598Z,0.60
2019-03-11T13:55:20.053Z,1.10
2019-03-11T13:57:48.545Z,1.43
2019-03-11T14:00:19.386Z,1.00
2019-03-11T14:02:48.534Z,1.00
2019-03-11T14:05:17.031Z,1.00
2019-03-11T14:07:45.457Z,0.80
2019-03-11T14:10:15.164Z,1.20
2019-03-11T14:12:44.576Z,1.17
2019-03-11T14:15:14.546Z,0.73
2019-03-11T14:17:43.034Z,1.10
2019-03-11T14:20:12.775Z,0.80
2019-03-11T14:22:41.259Z,0.73
2019-03-11T14:25:10.909Z,0.90
2019-03-11T14:27:39.359Z,0.80
2019-03-11T14:30:18.374Z,0.60
2019-03-11T14:32:46.855Z,1.00
2019-03-11T14:35:15.325Z,0.60
2019-03-11T14:37:44.018Z,1.00
2019-03-11T14:40:13.976Z,4.03
2019-03-11T14:42:42.418Z,0.70
2019-03-11T14:45:23.702Z,0.90
2019-03-11T14:47:52.283Z,0.90
2019-03-11T14:50:20.677Z,0.60
2019-03-11T14:52:50.161Z,0.60
2019-03-11T14:55:18.647Z,0.57
2019-03-11T14:57:47.095Z,0.70
2019-03-11T15:00:19.578Z,0.83
2019-03-11T15:02:48.927Z,0.63
2019-03-11T15:05:21.070Z,0.60
2019-03-11T15:07:50.252Z,0.50
2019-03-11T15:10:20.992Z,0.60
2019-03-11T15:12:49.487Z,0.80
2019-03-11T15:15:19.416Z,0.50
2019-03-11T15:17:47.863Z,1.00
2019-03-11T15:20:16.321Z,0.70
2019-03-11T15:22:44.842Z,0.60
2019-03-11T15:25:14.349Z,0.70
2019-03-11T15:27:42.932Z,0.80
2019-03-11T15:30:12.891Z,0.95
2019-03-11T15:32:41.529Z,0.53
2019-03-11T15:35:11.032Z,1.00
2019-03-11T15:37:39.516Z,0.72
2019-03-11T15:40:09.470Z,0.68
2019-03-11T15:42:38.325Z,0.60
2019-03-11T15:45:10.028Z,0.85
2019-03-11T15:47:38.975Z,0.80
2019-03-11T15:50:19.841Z,0.90
2019-03-11T15:52:49.453Z,0.80
2019-03-11T15:55:19.063Z,1.22
2019-03-11T15:57:47.954Z,0.78
2019-03-11T16:00:19.535Z,0.70
2019-03-11T16:02:49.104Z,0.72
2019-03-11T16:05:20.973Z,0.70
2019-03-11T16:07:50.891Z,0.95
2019-03-11T16:10:22.177Z,0.60
2019-03-11T16:12:51.133Z,1.02
2019-03-11T16:15:20.708Z,1.30
2019-03-11T16:17:49.738Z,0.85
2019-03-11T16:20:21.132Z,1.20
2019-03-11T16:22:50.069Z,0.90
2019-03-11T16:25:18.971Z,1.30
2019-03-11T16:27:47.851Z,1.00
2019-03-11T16:30:19.743Z,0.90
2019-03-11T16:32:58.412Z,1.12
2019-03-11T16:35:21.589Z,0.90
2019-03-11T16:37:50.479Z,0.98
2019-03-11T16:40:20.088Z,0.80
2019-03-11T16:42:48.984Z,1.10
2019-03-11T16:45:20.184Z,1.05
2019-03-11T16:47:49.934Z,1.20
2019-03-11T16:50:20.997Z,0.80
2019-03-11T16:52:49.868Z,0.93
2019-03-11T16:55:28.588Z,1.17
2019-03-11T16:57:57.480Z,0.80
2019-03-11T17:00:31.081Z,1.02
2019-03-11T17:03:00.072Z,0.98
2019-03-11T17:05:28.963Z,1.10
2019-03-11T17:07:57.853Z,0.80
2019-03-11T17:10:26.848Z,1.40
2019-03-11T17:12:55.739Z,1.20
2019-03-11T17:15:24.629Z,0.93
2019-03-11T17:17:53.622Z,0.95
2019-03-11T17:20:22.516Z,0.95
2019-03-11T17:22:51.403Z,0.90
2019-03-11T17:25:20.396Z,0.93
2019-03-11T17:27:49.389Z,2.00
2019-03-11T17:30:23.605Z,2.20
2019-03-11T17:32:52.612Z,1.57
2019-03-11T17:35:21.423Z,1.15
2019-03-11T17:37:50.381Z,1.00
2019-03-11T17:40:21.645Z,1.10
2019-03-11T17:42:51.288Z,1.45
2019-03-11T17:45:21.125Z,1.02
2019-03-11T17:47:50.653Z,1.10
2019-03-11T17:50:21.549Z,1.30
2019-03-11T17:52:52.021Z,1.40
2019-03-11T17:55:22.452Z,0.80
2019-03-11T17:57:51.337Z,1.00
2019-03-11T18:00:27.500Z,0.80
2019-03-11T18:02:57.106Z,1.30
2019-03-11T18:05:25.990Z,1.25
2019-03-11T18:07:54.891Z,0.90
2019-03-11T18:10:23.754Z,1.10
2019-03-11T18:12:52.669Z,1.20
2019-03-11T18:15:21.662Z,1.30
2019-03-11T18:17:51.121Z,1.20
2019-03-11T18:20:21.755Z,0.90
2019-03-11T18:29:39.800Z,1.10
2019-03-11T18:32:09.313Z,1.50
2019-03-11T18:34:38.182Z,1.40
2019-03-11T18:37:07.085Z,1.90
2019-03-11T18:39:35.983Z,1.32
2019-03-11T18:42:04.859Z,1.50
2019-03-11T18:44:33.740Z,2.10
2019-03-11T18:47:02.666Z,1.25
2019-03-11T18:49:31.522Z,1.90
2019-03-11T18:52:01.079Z,1.87
2019-03-11T18:54:30.039Z,1.45
2019-03-11T18:56:59.014Z,1.60
2019-03-11T18:59:29.541Z,1.30
2019-03-11T19:01:58.434Z,1.70
2019-03-11T19:04:27.360Z,1.60
2019-03-11T19:06:56.317Z,1.87
2019-03-11T19:09:25.345Z,1.82
2019-03-11T19:11:54.338Z,1.85
2019-03-11T19:14:23.968Z,1.62
2019-03-11T19:16:52.798Z,2.25
2019-03-11T19:19:21.716Z,2.22
2019-03-11T19:21:50.801Z,1.90
2019-03-11T19:24:19.613Z,2.08
2019-03-11T19:26:48.530Z,1.80
2019-03-11T19:29:17.437Z,2.00
2019-03-11T19:31:46.374Z,1.90
2019-03-11T19:34:15.208Z,1.75
2019-03-11T19:36:44.057Z,1.52
2019-03-11T19:39:14.232Z,1.70
2019-03-11T19:41:43.156Z,2.00
2019-03-11T19:44:12.136Z,1.82
2019-03-11T19:46:41.097Z,1.80
2019-03-11T19:49:11.147Z,1.90
2019-03-11T19:51:40.284Z,1.90
2019-03-11T19:54:09.193Z,1.70
2019-03-11T19:56:38.067Z,1.87
2019-03-11T19:59:07.109Z,1.82
2019-03-11T20:01:35.938Z,1.80
2019-03-11T20:04:05.042Z,2.10
2019-03-11T20:06:33.954Z,1.60
2019-03-11T20:09:02.982Z,2.20
2019-03-11T20:11:31.855Z,1.80
2019-03-11T20:14:00.918Z,1.87
2019-03-11T20:16:29.747Z,2.00
2019-03-11T20:18:58.684Z,1.80
2019-03-11T20:21:27.789Z,1.30
2019-03-11T20:23:56.662Z,1.87
2019-03-11T20:26:25.646Z,2.30
2019-03-11T20:28:54.553Z,1.60
2019-03-11T20:31:23.408Z,1.65
2019-03-11T20:33:52.213Z,2.20
2019-03-11T20:36:21.635Z,1.60
2019-03-11T20:38:50.544Z,1.72
2019-03-11T20:41:19.403Z,2.05
2019-03-11T20:43:48.268Z,2.50
2019-03-11T20:46:17.159Z,1.92
2019-03-11T20:48:45.999Z,2.02
2019-03-11T20:51:14.868Z,2.47
2019-03-11T20:53:43.973Z,2.20
2019-03-11T20:56:12.842Z,2.10
2019-03-11T20:58:41.815Z,2.10
2019-03-11T21:01:10.665Z,2.40
2019-03-11T21:03:39.481Z,2.80
2019-03-11T21:06:08.882Z,2.70
2019-03-11T21:08:37.680Z,2.90
2019-03-11T21:11:06.565Z,3.05
2019-03-11T21:13:35.650Z,2.72
2019-03-11T21:16:04.511Z,3.30
2019-03-11T21:18:33.508Z,3.08
2019-03-11T21:21:05.223Z,3.35
2019-03-11T21:23:32.895Z,2.92
2019-03-11T21:26:01.782Z,3.05
2019-03-11T21:28:30.749Z,3.10
2019-03-11T21:30:59.662Z,3.30
2019-03-11T21:33:28.553Z,3.20
2019-03-11T21:35:57.647Z,2.90
2019-03-11T21:38:27.236Z,4.20
2019-03-11T21:40:57.814Z,3.60
2019-03-11T21:43:26.689Z,3.58
2019-03-11T21:45:56.538Z,3.30
2019-03-11T21:48:25.483Z,3.85
2019-03-11T21:50:54.419Z,3.20
2019-03-11T21:53:23.285Z,3.50
2019-03-11T21:55:52.191Z,3.50
2019-03-11T21:58:21.175Z,3.50
2019-03-11T22:00:50.038Z,3.50
2019-03-11T22:03:18.929Z,3.27
2019-03-11T22:05:47.821Z,3.35
2019-03-11T22:08:16.711Z,3.35
2019-03-11T22:10:45.601Z,3.58
2019-03-11T22:13:14.491Z,3.30
2019-03-11T22:15:43.383Z,3.42
2019-03-11T22:18:12.281Z,3.25
2019-03-11T22:20:41.268Z,3.80
2019-03-11T22:23:10.158Z,3.08
2019-03-11T22:25:39.151Z,3.75
2019-03-11T22:28:08.042Z,3.90
2019-03-11T22:30:36.960Z,3.40
2019-03-11T22:33:05.925Z,3.40
2019-03-11T22:35:34.825Z,3.67
2019-03-11T22:38:03.711Z,3.72
2019-03-11T22:40:32.599Z,3.12
2019-03-11T22:43:01.493Z,4.17
2019-03-11T22:45:30.379Z,3.33
2019-03-11T22:47:59.270Z,3.60
2019-03-11T22:50:28.161Z,3.40
2019-03-11T22:52:57.052Z,3.33
2019-03-11T22:55:26.659Z,3.05
2019-03-11T22:57:55.654Z,3.40
2019-03-11T23:00:56.288Z,3.77
2019-03-11T23:03:26.106Z,3.98
2019-03-11T23:05:57.960Z,3.30
2019-03-11T23:08:26.339Z,3.55
2019-03-11T23:10:55.332Z,3.70
2019-03-11T23:13:24.325Z,4.95
2019-03-11T23:15:53.319Z,3.27
2019-03-11T23:18:22.210Z,4.00
2019-03-11T23:20:51.203Z,3.70
2019-03-11T23:23:20.093Z,3.58
2019-03-11T23:25:48.984Z,3.83
2019-03-11T23:28:17.977Z,4.37
2019-03-11T23:30:46.970Z,4.33
2019-03-11T23:33:15.864Z,4.35
2019-03-11T23:35:44.854Z,3.50
2019-03-11T23:38:13.725Z,4.12
2019-03-11T23:40:42.635Z,4.70
2019-03-11T23:43:11.630Z,4.35
2019-03-11T23:45:40.519Z,5.12
2019-03-11T23:48:09.351Z,4.50
2019-03-11T23:50:38.300Z,4.33
2019-03-11T23:53:07.193Z,5.03
2019-03-11T23:55:36.082Z,4.40
2019-03-11T23:58:05.074Z,4.03
